Time;durP1;ratioP1;P1;durP2;ratioP2;P2;SDS_P1;SDS_P2;PMS_P1;PMS_P2;Temp;Humidity;BMP_temperature;BMP_pressure;BME280_temperature;BME280_humidity;BME280_pressure;Samples;Min_cycle;Max_cycle;Signal;HPM_P1;HPM_P2
2023/04/24 00:00:15;;;;;;;13.25;9.20;;;;;;;10.30;nan;99955.75;4945112;28;20613;-77
2023/04/24 00:02:46;;;;;;;13.30;8.63;;;;;;;10.26;nan;99955.38;4972868;28;20024;-76
2023/04/24 00:05:13;;;;;;;14.75;8.80;;;;;;;10.15;nan;99946.50;4940573;28;21647;-76
2023/04/24 00:07:39;;;;;;;12.93;9.20;;;;;;;10.17;nan;99956.75;4939840;28;20993;-76
2023/04/24 00:10:05;;;;;;;12.98;9.00;;;;;;;10.09;nan;99952.66;4977484;28;20056;-76
2023/04/24 00:12:30;;;;;;;11.02;8.07;;;;;;;9.88;nan;99924.34;4944267;28;20058;-75
2023/04/24 00:14:56;;;;;;;13.55;8.82;;;;;;;10.12;nan;99964.56;4942343;29;20050;-76
2023/04/24 00:17:21;;;;;;;17.13;8.48;;;;;;;10.03;nan;99950.97;4946592;28;20525;-76
2023/04/24 00:19:47;;;;;;;14.27;9.18;;;;;;;10.04;nan;99957.03;4945658;28;20682;-75
2023/04/24 00:22:14;;;;;;;15.02;8.98;;;;;;;9.96;nan;99953.75;4944878;28;20023;-75
2023/04/24 00:24:40;;;;;;;13.60;8.82;;;;;;;9.96;nan;99959.00;4942463;28;20031;-75
2023/04/24 00:27:05;;;;;;;17.95;9.20;;;;;;;9.80;nan;99936.81;4941603;28;20598;-77
2023/04/24 00:29:31;;;;;;;13.40;8.63;;;;;;;9.87;nan;99947.22;4975499;28;20079;-76
2023/04/24 00:31:56;;;;;;;13.93;8.73;;;;;;;9.82;nan;99941.03;4941627;28;20039;-75
2023/04/24 00:34:22;;;;;;;12.07;8.80;;;;;;;9.68;nan;99928.16;4942337;28;20032;-77
2023/04/24 00:36:50;;;;;;;15.18;9.15;;;;;;;9.55;nan;99918.69;4940402;28;20032;-76
2023/04/24 00:39:15;;;;;;;14.60;9.07;;;;;;;9.56;nan;99943.94;4970062;28;20039;-76
2023/04/24 00:41:41;;;;;;;13.50;9.00;;;;;;;9.55;nan;99939.72;4968337;28;20039;-77
2023/04/24 00:44:07;;;;;;;13.88;9.25;;;;;;;9.49;nan;99940.63;4938795;28;20042;-77
2023/04/24 00:46:32;;;;;;;14.25;8.88;;;;;;;9.56;nan;99951.03;4937166;28;20182;-76
2023/04/24 00:48:59;;;;;;;13.02;8.65;;;;;;;9.54;nan;99950.44;4938040;28;20119;-76
2023/04/24 00:51:24;;;;;;;15.57;9.48;;;;;;;9.47;nan;99942.69;4937365;28;20055;-77
2023/04/24 00:53:50;;;;;;;13.45;9.00;;;;;;;9.50;nan;99950.09;4938577;28;20077;-75
2023/04/24 00:56:16;;;;;;;13.18;8.73;;;;;;;9.46;nan;99941.09;4939095;28;20419;-77
2023/04/24 00:58:43;;;;;;;13.52;8.75;;;;;;;9.47;nan;99942.69;4943703;28;20038;-76
2023/04/24 01:01:09;;;;;;;14.13;8.85;;;;;;;9.43;nan;99944.16;4939379;28;20023;-76
2023/04/24 01:03:36;;;;;;;16.08;8.77;;;;;;;9.36;nan;99938.22;4939149;28;20502;-76
2023/04/24 01:06:04;;;;;;;12.10;8.95;;;;;;;9.42;nan;99939.94;4937170;28;20034;-76
2023/04/24 01:08:29;;;;;;;15.63;8.88;;;;;;;9.46;nan;99943.72;4938185;28;20059;-77
2023/04/24 01:10:57;;;;;;;14.35;9.32;;;;;;;9.35;nan;99918.22;4936003;28;20462;-77
2023/04/24 01:13:22;;;;;;;12.98;8.82;;;;;;;9.52;nan;99944.63;4943376;28;20086;-76
2023/04/24 01:15:48;;;;;;;12.45;8.68;;;;;;;9.54;nan;99948.63;4943181;28;20494;-76
2023/04/24 01:18:14;;;;;;;19.50;9.57;;;;;;;9.44;nan;99927.38;4937866;28;20062;-77
2023/04/24 01:20:42;;;;;;;12.90;9.23;;;;;;;9.43;nan;99922.34;4940056;28;20027;-76
2023/04/24 01:23:08;;;;;;;13.05;9.13;;;;;;;9.55;nan;99931.84;4944838;28;20027;-77
2023/04/24 01:25:34;;;;;;;13.13;8.75;;;;;;;9.53;nan;99931.25;4936298;28;20039;-77
2023/04/24 01:28:00;;;;;;;13.82;9.40;;;;;;;9.56;nan;99930.00;4971174;28;20039;-76
2023/04/24 01:30:29;;;;;;;12.13;8.68;;;;;;;9.56;nan;99927.38;4936409;28;20036;-76
2023/04/24 01:32:55;;;;;;;14.52;8.98;;;;;;;9.39;nan;99900.97;4943466;28;20034;-76
2023/04/24 01:35:21;;;;;;;14.45;8.60;;;;;;;9.53;nan;99925.22;4937954;28;20050;-77
2023/04/24 01:37:46;;;;;;;11.57;8.40;;;;;;;9.51;nan;99927.25;4935441;28;20633;-77
2023/04/24 01:40:12;;;;;;;10.98;8.32;;;;;;;9.39;nan;99911.50;4937443;28;20393;-77
2023/04/24 01:42:38;;;;;;;15.70;8.40;;;;;;;9.43;nan;99917.88;4935087;28;20402;-76
2023/04/24 01:45:10;;;;;;;11.38;8.38;;;;;;;9.40;nan;99913.09;4939923;28;20039;-78
2023/04/24 01:47:36;;;;;;;13.00;8.65;;;;;;;9.31;nan;99901.31;4939045;28;20082;-77
2023/04/24 01:50:01;;;;;;;14.95;8.73;;;;;;;9.29;nan;99898.09;4936893;28;20042;-77
2023/04/24 01:52:28;;;;;;;14.18;7.97;;;;;;;9.25;nan;99896.97;4936568;28;20031;-76
2023/04/24 01:54:55;;;;;;;11.93;7.72;;;;;;;9.25;nan;99899.63;4936898;28;20027;-76
2023/04/24 01:57:21;;;;;;;11.73;7.95;;;;;;;9.21;nan;99898.47;4937021;28;20032;-77
2023/04/24 01:59:46;;;;;;;15.38;8.68;;;;;;;9.08;nan;99867.97;4937005;28;20600;-77
2023/04/24 02:02:11;;;;;;;13.93;9.00;;;;;;;9.17;nan;99890.25;4940891;28;20034;-77
2023/04/24 02:04:37;;;;;;;11.98;8.02;;;;;;;9.25;nan;99895.16;4938445;28;20040;-76
2023/04/24 02:07:02;;;;;;;15.07;8.95;;;;;;;9.27;nan;99887.84;4935318;28;20115;-77
2023/04/24 02:09:27;;;;;;;10.68;7.82;;;;;;;9.13;nan;99868.09;4938193;29;20027;-77
2023/04/24 02:11:53;;;;;;;12.80;8.00;;;;;;;9.24;nan;99890.13;4937566;29;20513;-76
2023/04/24 02:14:18;;;;;;;10.80;7.78;;;;;;;9.19;nan;99884.75;4938459;28;20035;-77
2023/04/24 02:16:44;;;;;;;15.77;8.20;;;;;;;9.20;nan;99886.38;4939841;28;20031;-75
2023/04/24 02:19:09;;;;;;;14.38;7.68;;;;;;;9.20;nan;99886.38;4939346;28;20054;-76
2023/04/24 02:21:35;;;;;;;13.50;8.13;;;;;;;9.25;nan;99886.47;4936172;28;20027;-76
2023/04/24 02:24:01;;;;;;;11.70;7.70;;;;;;;9.23;nan;99888.53;4936426;28;20035;-76
2023/04/24 02:26:26;;;;;;;11.13;8.10;;;;;;;9.15;nan;99874.72;4937487;28;20126;-76
2023/04/24 02:28:52;;;;;;;12.18;8.75;;;;;;;9.22;nan;99893.00;4938365;28;20039;-76
2023/04/24 02:31:17;;;;;;;13.13;8.35;;;;;;;9.12;nan;99875.16;4935485;28;20027;-76
2023/04/24 02:33:43;;;;;;;12.45;8.20;;;;;;;9.24;nan;99900.63;4965959;28;20047;-75
2023/04/24 02:36:08;;;;;;;15.38;7.90;;;;;;;9.16;nan;99891.25;4937819;28;20082;-76
2023/04/24 02:38:33;;;;;;;12.57;7.82;;;;;;;9.22;nan;99898.25;4935136;28;20036;-76
2023/04/24 02:41:00;;;;;;;15.63;8.43;;;;;;;9.21;nan;99901.09;4936951;28;20072;-76
2023/04/24 02:43:26;;;;;;;10.43;7.57;;;;;;;9.17;nan;99900.75;4936664;28;20061;-75
2023/04/24 02:45:51;;;;;;;14.55;8.43;;;;;;;9.10;nan;99887.72;4938446;28;20071;-76
2023/04/24 02:48:17;;;;;;;13.77;8.18;;;;;;;9.21;nan;99901.88;4938740;28;20146;-76
2023/04/24 02:50:43;;;;;;;17.85;7.97;;;;;;;9.16;nan;99892.06;4939211;28;20243;-75
2023/04/24 02:53:08;;;;;;;10.52;7.60;;;;;;;9.08;nan;99886.34;4939105;28;20493;-76
2023/04/24 02:55:34;;;;;;;16.77;8.80;;;;;;;9.08;nan;99883.72;4937695;28;20473;-76
2023/04/24 02:57:59;;;;;;;12.55;8.15;;;;;;;8.98;nan;99872.97;4967768;28;20039;-76
2023/04/24 03:00:25;;;;;;;12.63;7.88;;;;;;;8.94;nan;99872.63;4967697;28;20081;-76
2023/04/24 03:02:50;;;;;;;11.55;7.88;;;;;;;8.92;nan;99885.19;4937008;28;20043;-75
2023/04/24 03:05:16;;;;;;;12.75;8.30;;;;;;;9.05;nan;99887.63;4935979;28;20034;-76
2023/04/24 03:07:41;;;;;;;11.55;8.07;;;;;;;9.10;nan;99881.69;4936696;28;20043;-74
2023/04/24 03:10:08;;;;;;;14.20;8.30;;;;;;;8.82;nan;99845.56;4937291;28;20573;-76
2023/04/24 03:12:33;;;;;;;16.15;8.13;;;;;;;9.05;nan;99879.72;4966834;28;20035;-76
2023/04/24 03:14:59;;;;;;;12.00;8.07;;;;;;;9.17;nan;99885.00;4938001;28;20086;-76
2023/04/24 03:17:24;;;;;;;11.35;7.63;;;;;;;9.07;nan;99859.28;4938729;28;20079;-76
2023/04/24 03:19:50;;;;;;;12.27;7.65;;;;;;;9.20;nan;99887.16;4968055;28;20482;-76
2023/04/24 03:22:15;;;;;;;20.23;8.55;;;;;;;9.20;nan;99881.91;4941083;29;20035;-76
2023/04/24 03:24:41;;;;;;;11.27;7.90;;;;;;;9.11;nan;99867.50;4934958;28;20179;-76
2023/04/24 03:27:06;;;;;;;15.60;8.73;;;;;;;9.14;nan;99886.22;4939715;28;20038;-76
2023/04/24 03:29:31;;;;;;;15.35;8.27;;;;;;;9.12;nan;99867.28;4936104;28;20054;-74
2023/04/24 03:31:57;;;;;;;15.68;8.55;;;;;;;9.13;nan;99868.09;4943652;28;20067;-75
2023/04/24 03:34:22;;;;;;;11.70;7.55;;;;;;;9.06;nan;99868.19;4934793;28;20509;-75
2023/04/24 03:36:48;;;;;;;11.40;7.90;;;;;;;8.65;nan;99803.44;4942391;28;20046;-75
2023/04/24 03:39:13;;;;;;;11.13;7.80;;;;;;;8.88;nan;99850.72;4938360;28;20083;-76
2023/04/24 03:41:39;;;;;;;13.48;8.55;;;;;;;8.89;nan;99857.56;4936939;28;20544;-75
2023/04/24 03:44:04;;;;;;;11.77;7.97;;;;;;;8.85;nan;99855.59;4938202;28;20027;-75
2023/04/24 03:46:29;;;;;;;12.75;7.85;;;;;;;8.89;nan;99860.19;4940221;28;20114;-76
2023/04/24 03:48:55;;;;;;;12.57;8.15;;;;;;;8.91;nan;99862.59;4939869;28;20490;-76
2023/04/24 03:51:20;;;;;;;10.57;7.72;;;;;;;8.79;nan;99851.25;4946807;28;20082;-76
2023/04/24 03:53:46;;;;;;;11.50;7.60;;;;;;;8.82;nan;99849.00;4940322;28;20039;-76
2023/04/24 03:56:11;;;;;;;10.40;7.13;;;;;;;8.88;nan;99849.91;4939765;28;20031;-76
2023/04/24 03:58:37;;;;;;;20.33;8.00;;;;;;;8.89;nan;99835.75;4947152;28;20036;-76
2023/04/24 04:01:02;;;;;;;16.63;8.43;;;;;;;9.06;nan;99857.69;4939311;28;20072;-77
2023/04/24 04:03:28;;;;;;;15.75;8.38;;;;;;;9.21;nan;99866.94;4940928;28;20036;-75
2023/04/24 04:05:54;;;;;;;16.90;8.60;;;;;;;9.26;nan;99867.84;4940438;28;20890;-77
2023/04/24 04:08:19;;;;;;;13.45;7.97;;;;;;;9.27;nan;99848.44;4939397;28;20517;-76
2023/04/24 04:10:45;;;;;;;15.38;7.63;;;;;;;9.28;nan;99839.50;4938106;28;20063;-76
2023/04/24 04:13:10;;;;;;;15.00;8.63;;;;;;;9.34;nan;99843.06;4940310;28;20032;-76
2023/04/24 04:15:36;;;;;;;19.95;8.05;;;;;;;9.33;nan;99837.00;4935912;28;20035;-76
2023/04/24 04:18:01;;;;;;;13.55;7.53;;;;;;;9.49;nan;99861.78;4936955;28;20047;-76
2023/04/24 04:20:27;;;;;;;20.77;8.02;;;;;;;9.47;nan;99857.78;4947368;28;20039;-76
2023/04/24 04:22:52;;;;;;;14.95;7.68;;;;;;;9.56;nan;99867.72;4941998;28;20039;-76
2023/04/24 04:25:19;;;;;;;15.63;8.45;;;;;;;9.49;nan;99853.88;4944651;28;20031;-74
2023/04/24 04:27:47;;;;;;;14.25;7.30;;;;;;;9.47;nan;99842.00;4939548;28;20587;-75
2023/04/24 04:30:13;;;;;;;17.27;7.90;;;;;;;9.52;nan;99847.38;4967087;28;20039;-73
2023/04/24 04:32:38;;;;;;;17.98;7.68;;;;;;;9.37;nan;99814.50;4941828;28;20480;-73
2023/04/24 04:35:04;;;;;;;13.38;7.07;;;;;;;9.42;nan;99829.56;4968452;28;20023;-75
2023/04/24 04:37:31;;;;;;;11.38;7.20;;;;;;;9.53;nan;99854.25;4940884;28;20028;-74
2023/04/24 04:39:57;;;;;;;12.15;7.45;;;;;;;9.63;nan;99882.56;4941308;28;20039;-74
2023/04/24 04:42:24;;;;;;;14.00;7.53;;;;;;;9.58;nan;99881.41;4939832;28;20131;-75
2023/04/24 04:44:50;;;;;;;10.43;7.18;;;;;;;9.68;nan;99861.63;4958723;28;20478;-76
2023/04/24 04:47:17;;;;;;;13.75;7.53;;;;;;;9.79;nan;99863.41;4945676;28;20448;-77
2023/04/24 04:49:43;;;;;;;10.60;7.50;;;;;;;9.75;nan;99867.56;4938256;28;20486;-75
2023/04/24 04:52:08;;;;;;;12.05;7.63;;;;;;;9.83;nan;99861.94;4937450;28;20032;-76
2023/04/24 04:54:34;;;;;;;13.88;7.72;;;;;;;9.88;nan;99862.03;4954630;28;20478;-76
2023/04/24 04:57:00;;;;;;;14.13;7.90;;;;;;;9.91;nan;99852.88;4939822;28;20030;-76
2023/04/24 04:59:26;;;;;;;15.80;7.65;;;;;;;10.04;nan;99871.03;4946652;28;20023;-72
2023/04/24 05:01:52;;;;;;;8.68;6.65;;;;;;;10.05;nan;99866.56;4971544;28;20061;-73
2023/04/24 05:04:18;;;;;;;11.05;6.80;;;;;;;10.07;nan;99851.34;4941096;28;20055;-72
2023/04/24 05:06:44;;;;;;;11.52;7.47;;;;;;;10.15;nan;99853.59;4941098;28;20056;-72
2023/04/24 05:09:10;;;;;;;9.88;7.13;;;;;;;10.06;nan;99824.25;4938939;28;20094;-72
2023/04/24 05:11:35;;;;;;;10.07;7.30;;;;;;;10.19;nan;99852.09;4940409;28;20041;-72
2023/04/24 05:14:01;;;;;;;11.57;7.35;;;;;;;10.18;nan;99882.09;4936957;28;20647;-71
2023/04/24 05:16:26;;;;;;;19.90;13.77;;;;;;;10.23;nan;99864.53;4939435;28;20071;-72
2023/04/24 05:18:52;;;;;;;14.52;9.77;;;;;;;10.20;nan;99867.66;4938408;28;20422;-74
2023/04/24 05:21:17;;;;;;;12.32;8.75;;;;;;;10.25;nan;99869.59;4939956;28;20043;-73
2023/04/24 05:23:42;;;;;;;16.48;8.52;;;;;;;10.36;nan;99891.63;4939660;28;20031;-72
2023/04/24 05:26:08;;;;;;;13.68;8.88;;;;;;;10.29;nan;99875.97;4937350;28;20386;-72
2023/04/24 05:28:33;;;;;;;15.27;7.80;;;;;;;10.35;nan;99895.31;4935872;28;20343;-72
2023/04/24 05:30:59;;;;;;;15.23;8.82;;;;;;;10.16;nan;99853.38;4936718;28;20172;-74
2023/04/24 05:33:25;;;;;;;16.77;9.15;;;;;;;10.41;nan;99894.34;4936560;28;20063;-73
2023/04/24 05:35:51;;;;;;;15.65;9.27;;;;;;;10.51;nan;99905.09;4938786;28;20039;-73
2023/04/24 05:38:19;;;;;;;14.00;8.95;;;;;;;10.54;nan;99915.13;4940009;28;20023;-74
2023/04/24 05:40:45;;;;;;;14.73;8.48;;;;;;;10.46;nan;99897.06;4938162;29;20034;-73
2023/04/24 05:43:11;;;;;;;15.30;7.85;;;;;;;10.57;nan;99906.75;4938532;28;20045;-73
2023/04/24 05:45:36;;;;;;;14.27;8.25;;;;;;;10.63;nan;99919.00;4969892;28;20035;-73
2023/04/24 05:48:02;;;;;;;15.10;7.93;;;;;;;10.71;nan;99925.69;4937706;28;20427;-73
2023/04/24 05:50:28;;;;;;;18.50;8.15;;;;;;;10.70;nan;99918.81;4941105;28;20046;-73
2023/04/24 05:52:53;;;;;;;15.90;8.45;;;;;;;10.70;nan;99908.28;4937519;28;20020;-73
2023/04/24 05:55:19;;;;;;;13.45;8.13;;;;;;;10.80;nan;99918.22;4938843;28;20169;-73
2023/04/24 05:57:45;;;;;;;14.57;8.88;;;;;;;10.83;nan;99902.72;4937626;28;20042;-74
2023/04/24 06:00:11;;;;;;;22.75;10.07;;;;;;;10.82;nan;99897.69;4944501;28;20688;-73
2023/04/24 06:02:38;;;;;;;16.75;9.57;;;;;;;10.82;nan;99882.69;4940110;28;20087;-73
2023/04/24 06:05:04;;;;;;;18.02;8.73;;;;;;;10.96;nan;99895.53;4939032;28;20394;-72
2023/04/24 06:07:30;;;;;;;23.42;10.13;;;;;;;11.02;nan;99894.59;4968830;28;20409;-73
2023/04/24 06:09:56;;;;;;;19.92;9.32;;;;;;;11.09;nan;99895.22;4936667;28;20027;-73
2023/04/24 06:12:22;;;;;;;21.20;8.85;;;;;;;11.17;nan;99901.94;4937490;28;20090;-74
2023/04/24 06:14:47;;;;;;;13.00;8.38;;;;;;;11.29;nan;99913.97;4967658;28;20024;-72
2023/04/24 06:17:13;;;;;;;20.27;9.07;;;;;;;11.37;nan;99909.31;4938562;28;20109;-74
2023/04/24 06:19:38;;;;;;;19.40;8.68;;;;;;;;;;4934903;28;20485;-73
2023/04/24 06:22:04;;;;;;;14.57;9.43;;;;;;;11.48;nan;99900.53;4937672;28;20078;-73
2023/04/24 06:24:30;;;;;;;15.88;9.23;;;;;;;11.58;nan;99913.06;4938929;28;20033;-73
2023/04/24 06:26:56;;;;;;;23.17;10.20;;;;;;;11.67;nan;99928.22;4968458;28;20035;-73
2023/04/24 06:29:22;;;;;;;13.32;8.43;;;;;;;11.71;nan;99921.41;4938281;29;20090;-72
2023/04/24 06:31:47;;;;;;;15.73;8.13;;;;;;;11.83;nan;99926.59;4938350;28;20031;-72
2023/04/24 06:34:13;;;;;;;15.68;8.50;;;;;;;11.91;nan;99915.63;4936462;29;20093;-73
2023/04/24 06:36:38;;;;;;;17.42;9.00;;;;;;;;;;4934599;28;20482;-71
2023/04/24 06:39:04;;;;;;;14.23;8.80;;;;;;;12.59;nan;99968.13;4938328;28;20028;-71
2023/04/24 06:41:29;;;;;;;12.93;7.70;;;;;;;12.36;nan;99919.03;4938617;28;20050;-71
2023/04/24 06:43:55;;;;;;;14.90;8.30;;;;;;;12.47;nan;99904.88;4935720;28;20461;-72
2023/04/24 06:46:23;;;;;;;15.98;7.50;;;;;;;12.64;nan;99903.97;4936391;28;20024;-72
2023/04/24 06:48:49;;;;;;;10.02;6.75;;;;;;;12.65;nan;99885.25;4933593;28;20031;-72
2023/04/24 06:51:14;;;;;;;14.30;7.38;;;;;;;12.89;nan;99904.22;4936572;28;20702;-72
2023/04/24 06:53:39;;;;;;;10.98;7.20;;;;;;;12.94;nan;99898.16;4938036;28;20027;-70
2023/04/24 06:56:05;;;;;;;10.88;6.93;;;;;;;13.06;nan;99913.84;4936640;28;20042;-71
2023/04/24 06:58:30;;;;;;;11.23;6.78;;;;;;;13.17;nan;99913.69;4935182;28;20038;-76
2023/04/24 07:00:56;;;;;;;11.10;7.15;;;;;;;13.26;nan;99903.41;4966198;28;20039;-73
2023/04/24 07:03:21;;;;;;;11.50;7.38;;;;;;;13.31;nan;99903.50;4966632;28;20762;-72
2023/04/24 07:05:49;;;;;;;10.65;6.93;;;;;;;13.34;nan;99897.69;4935762;28;20059;-71
2023/04/24 07:08:16;;;;;;;12.38;7.30;;;;;;;13.54;nan;99904.94;4969372;28;20062;-72
2023/04/24 07:10:42;;;;;;;10.68;7.68;;;;;;;13.61;nan;99907.34;4943257;28;20035;-72
2023/04/24 07:13:08;;;;;;;10.18;7.07;;;;;;;13.73;nan;99904.50;4950680;28;20075;-72
2023/04/24 07:15:33;;;;;;;12.85;7.38;;;;;;;13.78;nan;99894.72;4935991;28;20142;-71
2023/04/24 07:17:59;;;;;;;12.40;7.60;;;;;;;13.84;nan;99903.50;4969818;28;20083;-72
2023/04/24 07:20:25;;;;;;;9.70;6.70;;;;;;;13.90;nan;99897.16;4939737;28;20032;-71
2023/04/24 07:22:51;;;;;;;10.80;6.93;;;;;;;14.08;nan;99903.88;4940386;28;20662;-72
2023/04/24 07:25:17;;;;;;;9.63;6.47;;;;;;;14.12;nan;99896.19;4940789;28;20027;-71
2023/04/24 07:27:42;;;;;;;8.48;5.88;;;;;;;14.28;nan;99916.34;4939575;29;20118;-72
2023/04/24 07:30:08;;;;;;;9.73;5.57;;;;;;;14.37;nan;99911.34;4938700;28;20027;-72
2023/04/24 07:32:34;;;;;;;8.20;5.63;;;;;;;14.42;nan;99906.84;4942474;28;20105;-70
2023/04/24 07:35:00;;;;;;;8.23;5.13;;;;;;;14.42;nan;99916.66;4944189;28;20078;-75
2023/04/24 07:37:25;;;;;;;7.25;5.22;;;;;;;14.35;nan;99911.59;4944258;28;20039;-76
2023/04/24 07:39:51;;;;;;;9.23;5.35;;;;;;;14.41;nan;99933.59;4973192;28;20030;-71
2023/04/24 07:42:16;;;;;;;10.77;5.75;;;;;;;14.43;nan;99932.28;4937785;28;20043;-71
2023/04/24 07:44:42;;;;;;;9.27;5.70;;;;;;;14.34;nan;99925.91;4937424;28;20069;-72
2023/04/24 07:47:08;;;;;;;8.55;5.80;;;;;;;14.35;nan;99926.72;4947276;28;20039;-72
2023/04/24 07:49:34;;;;;;;7.75;5.85;;;;;;;14.33;nan;99928.81;4940606;28;20059;-71
2023/04/24 07:52:02;;;;;;;8.25;5.85;;;;;;;14.43;nan;99942.06;4938027;28;20047;-71
2023/04/24 07:54:28;;;;;;;7.63;5.47;;;;;;;14.37;nan;99945.78;4937193;28;20029;-71
2023/04/24 07:56:53;;;;;;;10.02;6.22;;;;;;;14.38;nan;99950.81;4939665;28;20497;-71
2023/04/24 07:59:19;;;;;;;10.13;6.53;;;;;;;14.43;nan;99957.97;4939935;28;20025;-71
2023/04/24 08:01:44;;;;;;;10.50;5.65;;;;;;;14.38;nan;99947.38;4938473;28;20032;-71
2023/04/24 08:04:09;;;;;;;9.38;5.97;;;;;;;14.43;nan;99964.06;4940361;28;20028;-71
2023/04/24 08:06:35;;;;;;;10.35;5.90;;;;;;;14.46;nan;99963.56;4939850;28;20035;-71
2023/04/24 08:09:00;;;;;;;9.55;6.30;;;;;;;14.49;nan;99964.88;4937257;28;20031;-70
2023/04/24 08:11:26;;;;;;;7.57;5.45;;;;;;;14.47;nan;99964.34;4937452;28;20086;-71
2023/04/24 08:13:51;;;;;;;10.55;5.88;;;;;;;14.50;nan;99974.41;4937149;28;20027;-71
2023/04/24 08:16:17;;;;;;;9.00;5.95;;;;;;;14.46;nan;99968.03;4938908;28;20050;-71
2023/04/24 08:18:42;;;;;;;9.27;6.05;;;;;;;14.40;nan;99951.34;4938208;29;20585;-71
2023/04/24 08:21:08;;;;;;;8.60;5.78;;;;;;;14.25;nan;99935.41;4939986;28;20043;-75
2023/04/24 08:23:33;;;;;;;9.07;6.00;;;;;;;14.42;nan;99965.13;4937214;28;20054;-76
2023/04/24 08:25:59;;;;;;;13.05;5.55;;;;;;;14.39;nan;99967.50;4945416;29;20131;-76
2023/04/24 08:28:25;;;;;;;8.93;5.45;;;;;;;14.38;nan;99973.84;4938082;28;20049;-76
2023/04/24 08:30:54;;;;;;;8.13;5.50;;;;;;;14.38;nan;99972.00;4968354;28;20101;-76
2023/04/24 08:33:23;;;;;;;8.17;5.13;;;;;;;14.37;nan;99973.06;4936091;28;20075;-77
2023/04/24 08:35:48;;;;;;;7.60;5.53;;;;;;;14.39;nan;99986.03;4938348;29;20304;-75
2023/04/24 08:38:14;;;;;;;9.05;5.50;;;;;;;14.36;nan;99979.41;4934966;29;20687;-70
2023/04/24 08:40:42;;;;;;;7.05;5.22;;;;;;;14.31;nan;99963.50;4937792;28;20023;-72
2023/04/24 08:43:08;;;;;;;9.13;5.57;;;;;;;14.32;nan;99954.50;4968876;28;20029;-73
2023/04/24 08:45:33;;;;;;;6.80;4.97;;;;;;;14.41;nan;99974.16;4938388;28;20486;-72
2023/04/24 08:48:00;;;;;;;9.05;5.70;;;;;;;14.39;nan;99965.66;4936098;28;20024;-73
2023/04/24 08:50:25;;;;;;;9.02;5.60;;;;;;;14.38;nan;99973.84;4943699;28;20613;-76
2023/04/24 08:52:56;;;;;;;7.93;5.97;;;;;;;14.42;nan;99982.88;4939984;28;20478;-74
2023/04/24 08:55:24;;;;;;;7.93;5.70;;;;;;;14.45;nan;99979.69;4938020;28;20024;-74
2023/04/24 08:57:54;;;;;;;7.45;5.78;;;;;;;14.47;nan;99977.59;4937089;28;20494;-74
2023/04/24 09:00:21;;;;;;;7.50;5.43;;;;;;;14.35;nan;99969.88;4971848;28;20039;-74
2023/04/24 09:02:49;;;;;;;7.43;5.47;;;;;;;14.44;nan;99978.91;4969171;28;20122;-74
2023/04/24 09:05:17;;;;;;;8.70;6.30;;;;;;;14.43;nan;99976.50;4937222;28;20035;-74
2023/04/24 09:07:49;;;;;;;9.93;6.25;;;;;;;14.44;nan;99978.13;4940950;28;20038;-75
2023/04/24 09:10:17;;;;;;;9.80;6.43;;;;;;;14.48;nan;99981.81;4939017;28;20031;-75
2023/04/24 09:12:43;;;;;;;10.57;6.60;;;;;;;14.27;nan;99949.22;4936950;28;20030;-73
2023/04/24 09:15:10;;;;;;;10.15;6.63;;;;;;;14.52;nan;99984.75;4971147;28;20020;-75
2023/04/24 09:17:36;;;;;;;9.98;6.10;;;;;;;14.37;nan;99961.69;4939192;28;20047;-74
2023/04/24 09:20:02;;;;;;;13.15;6.20;;;;;;;14.47;nan;99980.25;4938187;28;20046;-73
2023/04/24 09:22:30;;;;;;;8.43;6.07;;;;;;;14.52;nan;99988.19;4939730;28;20039;-74
2023/04/24 09:25:08;;;;;;;10.85;6.43;;;;;;;14.54;nan;99988.78;4937142;28;20076;-72
2023/04/24 09:27:34;;;;;;;9.43;6.68;;;;;;;14.54;nan;99988.78;4939001;28;20031;-75
2023/04/24 09:30:01;;;;;;;9.18;6.93;;;;;;;14.55;nan;99995.66;4939169;28;20430;-75
2023/04/24 09:32:28;;;;;;;10.27;7.60;;;;;;;14.57;nan;99990.91;4935921;28;20028;-74
2023/04/24 09:35:09;;;;;;;10.00;7.07;;;;;;;14.52;nan;99988.19;4938467;28;20019;-75
2023/04/24 09:37:36;;;;;;;8.85;6.63;;;;;;;14.60;nan;100000.16;4936134;28;20079;-75
2023/04/24 09:40:08;;;;;;;9.63;7.00;;;;;;;14.57;nan;99993.53;4937871;28;20031;-76
2023/04/24 09:42:34;;;;;;;9.88;6.95;;;;;;;14.51;nan;99993.75;4939530;29;20055;-76
2023/04/24 09:44:59;;;;;;;8.13;6.38;;;;;;;14.41;nan;99978.63;4936864;28;20039;-77
2023/04/24 09:47:25;;;;;;;9.10;6.20;;;;;;;14.43;nan;99987.91;4941922;28;20027;-76
2023/04/24 09:49:50;;;;;;;9.63;6.05;;;;;;;14.36;nan;99986.56;4933805;28;20431;-76
2023/04/24 09:52:16;;;;;;;9.98;6.35;;;;;;;14.34;nan;99994.78;4942455;28;20030;-74
2023/04/24 09:54:41;;;;;;;7.82;6.30;;;;;;;14.25;nan;99985.75;4935294;28;20083;-75
2023/04/24 09:57:10;;;;;;;10.15;7.25;;;;;;;14.25;nan;99989.19;4938227;28;20532;-77
2023/04/24 09:59:41;;;;;;;9.93;7.30;;;;;;;14.20;nan;99973.28;4936438;28;20035;-76
2023/04/24 10:02:18;;;;;;;9.85;6.88;;;;;;;14.16;nan;99987.28;4952144;28;20512;-70
2023/04/24 10:04:55;;;;;;;9.35;6.53;;;;;;;14.11;nan;99988.06;4935758;28;20046;-69
2023/04/24 10:07:20;;;;;;;9.95;7.18;;;;;;;13.96;nan;99974.75;4937595;28;20032;-70
2023/04/24 10:09:46;;;;;;;11.45;7.22;;;;;;;13.94;nan;99974.22;4934883;28;20086;-70
2023/04/24 10:12:13;;;;;;;12.88;7.22;;;;;;;13.88;nan;99967.28;4935836;28;20498;-76
2023/04/24 10:14:39;;;;;;;11.73;7.30;;;;;;;13.83;nan;99970.72;4937530;28;20505;-76
2023/04/24 10:17:06;;;;;;;10.38;7.15;;;;;;;13.80;nan;99968.59;4932936;28;20023;-76
2023/04/24 10:19:32;;;;;;;12.38;7.85;;;;;;;13.74;nan;99959.00;4938395;29;20039;-75
2023/04/24 10:21:58;;;;;;;9.88;7.50;;;;;;;13.78;nan;99971.47;4938473;28;20478;-76
2023/04/24 10:24:23;;;;;;;9.75;6.95;;;;;;;13.72;nan;99964.56;4938021;29;20046;-75
2023/04/24 10:26:49;;;;;;;13.82;7.82;;;;;;;13.70;nan;99961.38;4937452;28;20385;-75
2023/04/24 10:29:17;;;;;;;9.82;7.43;;;;;;;13.68;nan;99954.75;4968264;28;20091;-74
2023/04/24 10:31:46;;;;;;;14.13;8.40;;;;;;;13.59;nan;99947.28;4938704;28;20031;-72
2023/04/24 10:34:20;;;;;;;16.08;8.30;;;;;;;13.65;nan;99958.72;4937088;28;20282;-71
2023/04/24 10:36:52;;;;;;;14.50;8.80;;;;;;;13.60;nan;99950.75;4946577;28;20035;-73
2023/04/24 10:39:19;;;;;;;12.98;8.05;;;;;;;13.61;nan;99949.69;4945583;29;20035;-73
2023/04/24 10:41:46;;;;;;;11.88;7.95;;;;;;;13.52;nan;99940.63;4940749;28;20058;-73
2023/04/24 10:44:22;;;;;;;10.93;8.00;;;;;;;13.57;nan;99951.25;4935575;28;20023;-72
2023/04/24 10:46:53;;;;;;;12.32;8.00;;;;;;;13.52;nan;99948.56;4935362;28;20036;-74
2023/04/24 10:49:28;;;;;;;12.20;7.82;;;;;;;13.52;nan;99946.72;4936328;28;20034;-73
2023/04/24 10:52:06;;;;;;;8.90;7.53;;;;;;;13.50;nan;99942.72;4969673;28;20038;-72
2023/04/24 10:54:46;;;;;;;11.45;7.97;;;;;;;13.45;nan;99948.00;4949218;28;20027;-70
2023/04/24 10:57:21;;;;;;;15.27;7.85;;;;;;;13.46;nan;99946.97;4943247;28;20034;-72
2023/04/24 11:00:09;;;;;;;10.65;7.78;;;;;;;13.45;nan;99945.34;4936384;28;20035;-73
2023/04/24 11:02:38;;;;;;;9.52;7.80;;;;;;;13.34;nan;99940.00;4941378;28;20111;-74
2023/04/24 11:05:05;;;;;;;12.63;8.23;;;;;;;13.43;nan;99942.94;4938151;28;20576;-73
2023/04/24 11:08:08;;;;;;;11.20;8.27;;;;;;;13.45;nan;99940.84;4941547;28;20385;-73
2023/04/24 11:10:33;;;;;;;10.13;8.02;;;;;;;13.37;nan;99923.63;4934585;28;20055;-73
2023/04/24 11:13:02;;;;;;;10.75;8.18;;;;;;;13.42;nan;99930.78;4935772;28;20114;-74
2023/04/24 11:15:29;;;;;;;9.45;7.50;;;;;;;13.45;nan;99940.84;4936428;28;20030;-69
2023/04/24 11:17:55;;;;;;;14.20;8.40;;;;;;;13.51;nan;99939.06;4939676;28;20051;-69
2023/04/24 11:20:23;;;;;;;11.85;8.73;;;;;;;13.49;nan;99933.22;4938822;28;20038;-69
2023/04/24 11:22:53;;;;;;;9.63;7.72;;;;;;;13.51;nan;99929.25;4938804;28;20046;-70
2023/04/24 11:25:19;;;;;;;12.82;8.05;;;;;;;13.54;nan;99938.53;4937347;28;20031;-69
2023/04/24 11:27:48;;;;;;;9.40;7.75;;;;;;;13.60;nan;99942.81;4937091;28;20032;-70
2023/04/24 11:30:17;;;;;;;;;;;;;;;13.62;nan;99951.28;4938432;28;20035;-70
2023/04/24 11:32:43;;;;;;;12.32;8.30;;;;;;;13.60;nan;99937.53;4937358;28;19922;-70
2023/04/24 11:35:13;;;;;;;9.75;8.02;;;;;;;13.65;nan;99942.84;4938210;28;20371;-70
2023/04/24 11:37:40;;;;;;;13.35;9.13;;;;;;;13.68;nan;99938.88;4939930;28;20036;-74
2023/04/24 11:40:08;;;;;;;11.85;8.95;;;;;;;13.69;nan;99930.66;4944039;28;20030;-76
2023/04/24 11:42:39;;;;;;;11.93;8.70;;;;;;;13.68;nan;99923.81;4939993;28;20835;-75
2023/04/24 11:45:14;;;;;;;10.95;8.15;;;;;;;13.66;nan;99919.81;4946052;28;20027;-76